Main page
METAR-TAF:

METAR-TAF

Airports :

RAF Cranwell

Cranwell, England

latitude: 53-02N, longitude: 000-30W, elevation: 67 m

Current weather observation

The report was made 1 hour and 13 minutes ago, at 21:50 UTC
Wind 12 kt from the East/Southeast
Temperature 5°C
Humidity 93%
Pressure 1000 hPa
Visibility: 2700 m

METAR: EGYD 212150Z AUTO 12012KT 2700 // OVC005/// 05/04 Q1000

Time: 23:03 (23:03 UTC)

Forecast

The report was made 9 hours and 23 minutes ago, at 13:40 UTC
Forecast valid from 21 at 15 UTC to 21 at 18 UTC
Wind 10 kt from the East/Southeast
Visibility 10 km or more
Broken clouds at a height of 1800 ft
Probability 40%
from 21 at 15 UTC to 21 at 18 UTC
Broken clouds at a height of 1400 ft

TAF: EGYD 211340Z 2115/2118 11010KT 9999 BKN018 PROB40 2115/2118 BKN014

Weather observations and forecasts of more than 4000 airports (METAR and TAF reports).

The available stations are represented by yellow and red dots on the map.

Hover mouse over dot to see the name of the station.

Then click to see weather observations and forecasts.

To change the map : click on the green buttons with a black cross to zoom in, on the green button with a dash to zoom out, or on the green arrows for adjacent maps.


METAR-TAF: